Terminal Aerodrome Forecast
Issued by NWS Cleveland, OH

Home | Current Version | Previous Version | Graphics & Text | Print | Product List | Glossary On
Versions: 1 2 3 4 5 6 7 8 9 10 11 12 13 14 15
698
FTUS41 KCLE 261139
TAFYNG
TAF
KYNG 261139Z 2612/2712 26010KT P6SM -SHSN SCT025 OVC045
      TEMPO 2612/2613 4SM -SHSN BKN030
     FM261500 24010KT P6SM BKN040
     FM261800 22008KT P6SM SCT040 BKN100=

USA.gov is the U.S. government's official web portal to all federal, state and local government web resources and services.